Time;durP1;ratioP1;P1;durP2;ratioP2;P2;SDS_P1;SDS_P2;PMS_P1;PMS_P2;Temp;Humidity;BMP_temperature;BMP_pressure;BME280_temperature;BME280_humidity;BME280_pressure;Samples;Min_cycle;Max_cycle;Signal;HPM_P1;HPM_P2
2021/06/04 00:02:00;;;;;;;5.57;4.45;;;18.90;99.90;;;;;;5027399;28;20098;-46
2021/06/04 00:04:26;;;;;;;5.22;4.45;;;18.90;99.90;;;;;;5029542;28;20383;-46
2021/06/04 00:06:51;;;;;;;3.92;3.58;;;18.90;99.90;;;;;;5031390;28;20021;-46
2021/06/04 00:09:17;;;;;;;4.50;3.58;;;18.90;99.90;;;;;;5030239;28;20091;-46
2021/06/04 00:11:49;;;;;;;5.03;4.28;;;18.90;99.90;;;;;;5030918;28;20045;-46
2021/06/04 00:14:23;;;;;;;4.70;4.28;;;18.90;99.90;;;;;;5031237;28;20029;-46
2021/06/04 00:16:56;;;;;;;4.32;3.75;;;18.80;99.90;;;;;;5013286;28;20025;-46
2021/06/04 00:19:25;;;;;;;6.30;4.00;;;18.80;99.90;;;;;;5030287;28;20013;-46
2021/06/04 00:21:55;;;;;;;4.18;3.88;;;18.80;99.90;;;;;;5031133;28;20084;-46
2021/06/04 00:24:21;;;;;;;4.10;3.70;;;18.70;99.90;;;;;;5031328;28;20532;-46
2021/06/04 00:26:47;;;;;;;4.53;4.13;;;18.70;99.90;;;;;;5030889;28;20027;-46
2021/06/04 00:29:14;;;;;;;4.22;3.83;;;18.70;99.90;;;;;;5029676;28;20103;-46
2021/06/04 00:31:40;;;;;;;4.68;4.28;;;18.70;99.90;;;;;;5030597;28;20030;-46
2021/06/04 00:34:06;;;;;;;4.43;4.07;;;18.70;99.90;;;;;;5030487;28;20025;-47
2021/06/04 00:36:33;;;;;;;5.07;4.38;;;18.70;99.90;;;;;;5030691;28;20030;-46
2021/06/04 00:38:59;;;;;;;5.38;4.28;;;18.70;99.90;;;;;;5029439;28;20060;-48
2021/06/04 00:41:29;;;;;;;4.78;3.80;;;18.70;99.90;;;;;;5030786;28;20034;-46
2021/06/04 00:43:55;;;;;;;5.07;4.45;;;18.70;99.90;;;;;;5030365;28;20584;-48
2021/06/04 00:46:22;;;;;;;5.32;4.38;;;18.70;99.90;;;;;;5030519;28;20487;-47
2021/06/04 00:48:47;;;;;;;4.00;3.65;;;18.70;99.90;;;;;;5029971;28;20585;-46
2021/06/04 00:51:30;;;;;;;4.80;4.28;;;18.70;99.90;;;;;;5030511;28;20061;-46
2021/06/04 00:53:56;;;;;;;3.88;3.58;;;18.70;99.90;;;;;;5030280;28;20108;-46
2021/06/04 00:56:26;;;;;;;3.97;3.58;;;18.70;99.90;;;;;;5030432;28;20113;-47
2021/06/04 00:58:52;;;;;;;7.05;4.45;;;18.70;99.90;;;;;;5030020;28;20491;-48
2021/06/04 01:01:23;;;;;;;4.25;3.95;;;18.70;99.90;;;;;;5030416;28;20041;-48
2021/06/04 01:03:56;;;;;;;5.18;4.55;;;18.70;99.90;;;;;;5030046;28;20045;-47
2021/06/04 01:06:34;;;;;;;5.25;4.60;;;18.70;99.90;;;;;;5029831;28;20104;-46
2021/06/04 01:09:33;;;;;;;4.20;3.88;;;18.70;99.90;;;;;;5029440;28;20028;-47
2021/06/04 01:11:59;;;;;;;4.20;3.80;;;18.70;99.90;;;;;;5030192;28;20025;-46
2021/06/04 01:14:51;;;;;;;4.57;3.95;;;18.70;99.90;;;;;;5030282;28;20032;-46
2021/06/04 01:17:31;;;;;;;4.60;4.10;;;18.70;99.90;;;;;;5029681;28;20029;-46
2021/06/04 01:20:25;;;;;;;3.63;3.33;;;18.60;99.90;;;;;;5030178;28;20029;-46
2021/06/04 01:23:19;;;;;;;4.47;4.07;;;18.60;99.90;;;;;;5025617;28;20716;-46
2021/06/04 01:25:54;;;;;;;3.80;3.50;;;18.60;99.90;;;;;;5012381;28;20117;-46
2021/06/04 01:28:23;;;;;;;5.28;4.15;;;18.60;99.90;;;;;;5029800;28;20060;-46
2021/06/04 01:31:12;;;;;;;5.78;4.15;;;18.60;99.90;;;;;;5030096;28;20100;-46
2021/06/04 01:33:51;;;;;;;4.78;4.28;;;18.60;99.90;;;;;;5029932;28;20100;-46
2021/06/04 01:36:23;;;;;;;5.65;4.43;;;18.60;99.90;;;;;;5012385;28;20022;-48
2021/06/04 01:38:51;;;;;;;4.57;4.18;;;18.60;99.90;;;;;;5010525;28;20078;-46
2021/06/04 01:41:20;;;;;;;4.40;4.00;;;18.60;99.90;;;;;;5030147;28;20026;-46
2021/06/04 01:43:50;;;;;;;4.40;3.97;;;18.60;99.90;;;;;;5012367;28;20057;-48
2021/06/04 01:46:23;;;;;;;3.97;3.57;;;18.60;99.90;;;;;;5029510;28;20048;-46
2021/06/04 01:48:51;;;;;;;5.47;4.47;;;18.50;99.90;;;;;;5028904;28;20614;-47
2021/06/04 01:51:31;;;;;;;5.00;4.43;;;18.50;99.90;;;;;;5029552;28;20029;-47
2021/06/04 01:54:02;;;;;;;5.32;4.40;;;18.40;99.90;;;;;;5009370;28;20507;-48
2021/06/04 01:56:34;;;;;;;4.43;4.03;;;18.50;99.90;;;;;;5018085;28;20053;-46
2021/06/04 01:59:26;;;;;;;5.03;4.53;;;18.50;99.90;;;;;;5009103;28;20021;-46
2021/06/04 02:01:53;;;;;;;6.45;4.90;;;18.50;99.90;;;;;;5027928;28;20056;-46
2021/06/04 02:04:34;;;;;;;4.45;4.13;;;18.40;99.90;;;;;;5023684;28;20021;-47
2021/06/04 02:07:00;;;;;;;4.82;4.35;;;18.50;99.90;;;;;;5027972;28;20041;-48
2021/06/04 02:09:27;;;;;;;4.53;4.15;;;18.40;99.90;;;;;;5028147;28;20024;-46
2021/06/04 02:11:54;;;;;;;4.43;4.03;;;18.40;99.90;;;;;;5011001;28;20025;-47
2021/06/04 02:14:29;;;;;;;5.15;4.55;;;18.40;99.90;;;;;;5028779;28;20033;-47
2021/06/04 02:17:05;;;;;;;5.63;4.57;;;18.40;99.90;;;;;;5028738;28;20091;-46
2021/06/04 02:19:53;;;;;;;6.07;4.93;;;18.40;99.90;;;;;;5025690;28;20058;-47
2021/06/04 02:22:34;;;;;;;4.90;4.47;;;18.30;99.90;;;;;;5023511;28;20833;-47
2021/06/04 02:25:19;;;;;;;6.15;5.15;;;18.30;99.90;;;;;;5019233;28;20021;-47
2021/06/04 02:27:54;;;;;;;5.00;4.50;;;18.30;99.90;;;;;;5017517;28;20026;-47
2021/06/04 02:30:28;;;;;;;5.18;4.57;;;18.30;99.90;;;;;;5020794;28;20388;-49
2021/06/04 02:33:05;;;;;;;5.00;4.50;;;18.30;99.90;;;;;;5018465;28;20032;-47
2021/06/04 02:35:35;;;;;;;5.10;4.60;;;18.30;99.90;;;;;;5011728;28;20049;-47
2021/06/04 02:38:12;;;;;;;5.38;4.55;;;18.30;99.90;;;;;;5018337;28;20384;-47
2021/06/04 02:40:44;;;;;;;6.13;5.20;;;18.20;99.90;;;;;;5019339;28;20025;-46
2021/06/04 02:43:19;;;;;;;5.72;5.05;;;18.20;99.90;;;;;;5009317;28;20051;-47
2021/06/04 02:45:54;;;;;;;4.68;4.28;;;18.20;99.90;;;;;;5022529;28;20103;-47
2021/06/04 02:48:24;;;;;;;6.13;4.70;;;18.20;99.90;;;;;;5019662;28;20349;-47
2021/06/04 02:50:58;;;;;;;5.95;4.60;;;18.20;99.90;;;;;;5027940;28;20028;-47
2021/06/04 02:53:32;;;;;;;5.95;5.32;;;18.20;99.90;;;;;;5028170;28;20036;-48
2021/06/04 02:56:07;;;;;;;5.57;4.80;;;18.20;99.90;;;;;;5027762;28;20032;-46
2021/06/04 02:58:33;;;;;;;5.60;5.10;;;18.20;99.90;;;;;;5026558;28;20025;-46
2021/06/04 03:00:59;;;;;;;6.55;5.60;;;18.20;99.90;;;;;;5027898;28;20029;-47
2021/06/04 03:03:24;;;;;;;5.85;5.30;;;18.20;99.90;;;;;;5027843;28;20037;-47
2021/06/04 03:05:50;;;;;;;5.57;5.07;;;18.10;99.90;;;;;;5010570;28;20048;-47
2021/06/04 03:08:19;;;;;;;5.05;4.65;;;18.10;99.90;;;;;;5009124;28;20025;-46
2021/06/04 03:10:48;;;;;;;5.57;5.07;;;18.20;99.90;;;;;;5028152;28;20024;-46
2021/06/04 03:13:18;;;;;;;7.15;5.18;;;18.10;99.90;;;;;;5028086;28;20471;-46
2021/06/04 03:15:51;;;;;;;6.28;5.68;;;18.10;99.90;;;;;;5027999;28;20033;-46
2021/06/04 03:18:28;;;;;;;6.22;5.72;;;18.10;99.90;;;;;;5023341;28;20136;-48
2021/06/04 03:20:54;;;;;;;9.18;5.93;;;18.10;99.90;;;;;;5024348;28;20025;-46
2021/06/04 03:23:23;;;;;;;5.72;5.03;;;18.20;99.90;;;;;;5026197;28;20072;-47
2021/06/04 03:25:52;;;;;;;6.35;5.80;;;18.20;99.90;;;;;;5027211;28;20022;-47
2021/06/04 03:28:22;;;;;;;6.45;5.85;;;18.20;99.90;;;;;;5026519;28;20533;-49
2021/06/04 03:30:48;;;;;;;6.05;5.45;;;18.20;99.90;;;;;;5007843;28;20507;-47
2021/06/04 03:33:18;;;;;;;7.78;5.30;;;18.20;99.90;;;;;;5019335;28;20185;-47
2021/06/04 03:35:45;;;;;;;6.45;5.85;;;18.10;99.90;;;;;;5019372;28;20079;-47
2021/06/04 03:38:10;;;;;;;6.65;6.03;;;18.10;99.90;;;;;;5017062;28;20182;-46
2021/06/04 03:40:38;;;;;;;6.45;5.85;;;18.10;99.90;;;;;;5018360;28;20021;-48
2021/06/04 03:43:07;;;;;;;8.60;6.28;;;18.20;99.90;;;;;;5016672;28;20156;-47
2021/06/04 03:45:38;;;;;;;7.60;6.13;;;18.20;99.90;;;;;;5016308;28;20071;-45
2021/06/04 03:48:06;;;;;;;9.02;6.45;;;18.20;99.90;;;;;;5017240;28;20427;-46
2021/06/04 03:50:34;;;;;;;6.65;5.68;;;18.20;99.90;;;;;;5008469;28;20026;-46
2021/06/04 03:53:02;;;;;;;8.75;6.43;;;18.20;99.90;;;;;;5006914;28;20471;-46
2021/06/04 03:55:28;;;;;;;7.22;5.90;;;18.20;99.90;;;;;;5007469;28;20092;-50
2021/06/04 03:57:55;;;;;;;7.35;6.07;;;18.20;99.90;;;;;;5006439;28;20737;-48
2021/06/04 04:00:31;;;;;;;6.45;5.85;;;18.20;99.90;;;;;;5018630;28;20033;-50
2021/06/04 04:02:58;;;;;;;7.28;6.55;;;18.30;99.90;;;;;;5017895;28;20060;-48
2021/06/04 04:05:24;;;;;;;7.93;5.90;;;18.30;99.90;;;;;;5015485;28;20033;-49
2021/06/04 04:07:50;;;;;;;7.43;6.20;;;18.30;99.90;;;;;;5018996;28;20025;-49
2021/06/04 04:10:16;;;;;;;8.30;6.13;;;18.30;99.90;;;;;;5018626;28;20094;-46
2021/06/04 04:12:42;;;;;;;7.30;6.43;;;18.30;99.90;;;;;;5009295;28;20033;-46
2021/06/04 04:15:18;;;;;;;6.78;5.90;;;18.30;99.90;;;;;;5027291;28;20253;-49
2021/06/04 04:17:45;;;;;;;9.27;6.78;;;18.30;99.90;;;;;;5023683;28;20026;-47
2021/06/04 04:20:13;;;;;;;8.00;7.20;;;18.30;99.90;;;;;;5023084;28;20079;-47
2021/06/04 04:22:39;;;;;;;7.57;6.55;;;18.30;99.90;;;;;;5017476;28;20021;-48
2021/06/04 04:25:07;;;;;;;7.00;6.40;;;18.40;99.90;;;;;;5016869;28;20373;-48
2021/06/04 04:27:32;;;;;;;7.50;6.80;;;18.40;99.90;;;;;;5015193;28;20181;-45
2021/06/04 04:29:58;;;;;;;8.45;7.07;;;18.40;99.90;;;;;;5008197;28;20029;-45
2021/06/04 04:32:24;;;;;;;7.32;6.65;;;18.40;99.90;;;;;;5017100;28;20403;-46
2021/06/04 04:34:49;;;;;;;7.45;6.72;;;18.40;99.90;;;;;;5016135;28;20112;-48
2021/06/04 04:37:15;;;;;;;9.13;7.30;;;18.40;99.90;;;;;;5017585;28;20287;-47
2021/06/04 04:39:45;;;;;;;9.63;8.52;;;18.40;99.90;;;;;;5005882;28;20076;-47
2021/06/04 04:42:14;;;;;;;8.35;7.43;;;18.50;99.90;;;;;;5016204;28;20261;-45
2021/06/04 04:44:40;;;;;;;8.32;7.35;;;18.50;99.90;;;;;;5016954;28;20033;-49
2021/06/04 04:47:10;;;;;;;9.77;7.63;;;18.60;99.90;;;;;;5017058;28;20136;-46
2021/06/04 04:49:36;;;;;;;8.77;7.35;;;18.60;99.90;;;;;;5014928;28;20101;-46
2021/06/04 04:52:02;;;;;;;7.72;6.93;;;18.70;99.90;;;;;;5020150;28;20249;-47
2021/06/04 04:54:28;;;;;;;9.65;8.35;;;18.70;99.90;;;;;;5020283;28;20037;-46
2021/06/04 04:56:53;;;;;;;9.02;7.10;;;18.80;99.90;;;;;;5021736;28;20038;-46
2021/06/04 04:59:19;;;;;;;10.88;8.30;;;18.80;99.90;;;;;;5020655;28;20393;-47
2021/06/04 05:01:46;;;;;;;10.57;8.63;;;18.80;99.90;;;;;;5019771;28;20502;-46
2021/06/04 05:04:11;;;;;;;9.48;7.38;;;18.80;99.90;;;;;;5009909;28;20042;-49
2021/06/04 05:06:37;;;;;;;11.07;8.57;;;18.80;99.90;;;;;;5010403;28;20022;-47
2021/06/04 05:09:07;;;;;;;9.48;8.45;;;18.90;99.90;;;;;;5027337;28;20048;-45
2021/06/04 05:11:33;;;;;;;10.10;8.97;;;19.00;99.90;;;;;;5030308;28;20101;-46
2021/06/04 05:13:59;;;;;;;10.50;8.80;;;19.00;99.90;;;;;;5011304;28;20253;-45
2021/06/04 05:16:25;;;;;;;10.38;8.57;;;19.00;99.90;;;;;;5012828;28;20500;-46
2021/06/04 05:18:51;;;;;;;10.15;8.95;;;19.10;99.90;;;;;;5010441;28;20170;-46
2021/06/04 05:21:18;;;;;;;9.50;8.60;;;19.20;99.90;;;;;;5010634;28;20484;-47
2021/06/04 05:23:43;;;;;;;10.05;8.88;;;19.30;99.90;;;;;;5029394;28;20036;-46
2021/06/04 05:26:09;;;;;;;9.88;8.93;;;19.30;99.90;;;;;;5035192;28;20025;-46
2021/06/04 05:28:38;;;;;;;10.10;9.00;;;19.30;99.90;;;;;;5048966;28;20368;-46
2021/06/04 05:31:07;;;;;;;10.13;9.13;;;19.30;99.90;;;;;;5050066;28;20025;-47
2021/06/04 05:33:36;;;;;;;10.25;8.25;;;19.40;99.90;;;;;;5050294;28;20025;-46
2021/06/04 05:36:06;;;;;;;12.63;10.02;;;19.50;99.90;;;;;;5049701;28;20028;-47
2021/06/04 05:38:32;;;;;;;13.25;8.73;;;19.50;99.90;;;;;;5034696;28;20032;-46
2021/06/04 05:40:57;;;;;;;13.68;9.57;;;19.50;99.90;;;;;;5029569;28;20475;-49
2021/06/04 05:43:26;;;;;;;12.60;10.05;;;19.60;99.90;;;;;;5029723;28;20028;-48
2021/06/04 05:45:52;;;;;;;10.57;9.27;;;19.60;99.90;;;;;;5029671;28;20512;-48
2021/06/04 05:48:19;;;;;;;11.93;8.70;;;19.70;99.90;;;;;;5029046;28;20028;-47
2021/06/04 05:50:48;;;;;;;12.77;9.57;;;19.70;99.90;;;;;;5029467;28;20124;-46
2021/06/04 05:53:15;;;;;;;9.73;8.80;;;19.80;99.90;;;;;;5029440;28;20017;-48
2021/06/04 05:55:42;;;;;;;13.90;9.65;;;19.80;99.90;;;;;;5028762;28;20033;-46
2021/06/04 05:58:11;;;;;;;12.32;9.38;;;19.80;99.90;;;;;;5028086;28;20121;-47
2021/06/04 06:00:41;;;;;;;11.77;9.57;;;19.80;99.90;;;;;;5021956;28;20113;-46
2021/06/04 06:03:09;;;;;;;11.18;9.93;;;19.80;99.90;;;;;;5024599;28;20056;-46
2021/06/04 06:05:34;;;;;;;12.50;9.27;;;19.80;99.90;;;;;;5011880;28;20042;-46
2021/06/04 06:08:00;;;;;;;10.85;9.43;;;19.80;99.90;;;;;;5016974;28;20396;-46
2021/06/04 06:10:26;;;;;;;10.85;9.68;;;19.70;99.90;;;;;;5028389;28;20352;-46
2021/06/04 06:12:53;;;;;;;11.90;9.88;;;19.60;99.90;;;;;;5011104;28;20120;-45
2021/06/04 06:15:20;;;;;;;10.77;9.55;;;19.50;99.90;;;;;;5028743;28;20261;-45
2021/06/04 06:17:46;;;;;;;9.75;8.75;;;19.50;99.90;;;;;;5028048;28;20034;-46
2021/06/04 06:20:14;;;;;;;17.65;10.18;;;19.50;99.90;;;;;;5028838;28;20036;-47
2021/06/04 06:22:41;;;;;;;12.43;9.70;;;19.50;99.90;;;;;;5010962;28;20029;-44
2021/06/04 06:25:14;;;;;;;12.63;10.20;;;19.50;99.90;;;;;;5026270;28;20029;-45
2021/06/04 06:27:40;;;;;;;11.40;9.95;;;19.70;99.90;;;;;;5026952;28;20560;-47
2021/06/04 06:30:08;;;;;;;15.85;10.20;;;19.70;99.90;;;;;;5026268;28;20128;-46
2021/06/04 06:32:34;;;;;;;11.05;9.93;;;19.80;99.90;;;;;;5047388;28;20634;-48
2021/06/04 06:35:01;;;;;;;12.82;9.25;;;19.80;99.90;;;;;;5047497;28;20029;-46
2021/06/04 06:37:27;;;;;;;10.43;9.32;;;19.80;99.90;;;;;;5043284;28;20024;-47
2021/06/04 06:39:53;;;;;;;11.93;9.55;;;19.90;99.90;;;;;;5027878;28;20114;-45
2021/06/04 06:42:19;;;;;;;15.70;11.10;;;19.90;99.90;;;;;;5027659;28;20063;-48
2021/06/04 06:44:45;;;;;;;11.55;9.13;;;19.90;99.90;;;;;;5027926;28;20032;-46
2021/06/04 06:47:10;;;;;;;14.18;9.80;;;19.90;99.90;;;;;;5028219;28;20022;-47
2021/06/04 06:49:36;;;;;;;16.98;9.80;;;19.90;99.90;;;;;;5028283;28;20377;-47
2021/06/04 06:52:01;;;;;;;11.40;9.90;;;20.00;99.90;;;;;;5027662;28;20111;-46
2021/06/04 06:54:32;;;;;;;10.85;9.50;;;20.00;99.90;;;;;;5009936;28;20044;-45
2021/06/04 06:56:59;;;;;;;14.75;10.13;;;20.00;99.90;;;;;;5027794;28;20075;-46
2021/06/04 06:59:29;;;;;;;11.30;9.25;;;20.00;99.90;;;;;;5027008;28;20271;-46
2021/06/04 07:01:55;;;;;;;11.93;10.73;;;20.10;99.90;;;;;;5028305;28;20033;-45
2021/06/04 07:04:21;;;;;;;10.20;8.60;;;20.10;99.90;;;;;;5028037;28;20033;-46
2021/06/04 07:06:47;;;;;;;12.68;9.00;;;20.20;99.90;;;;;;5027537;28;20032;-46
2021/06/04 07:09:15;;;;;;;11.52;9.13;;;20.40;99.90;;;;;;5025970;28;20548;-46
2021/06/04 07:11:49;;;;;;;12.23;10.15;;;20.60;99.90;;;;;;5027425;28;20018;-45
2021/06/04 07:14:16;;;;;;;11.02;9.27;;;20.70;99.90;;;;;;5026061;28;20083;-46
2021/06/04 07:16:42;;;;;;;9.75;8.75;;;20.90;99.90;;;;;;5027707;28;20123;-46
2021/06/04 07:19:07;;;;;;;10.13;8.32;;;21.00;99.90;;;;;;5007506;28;20116;-46
2021/06/04 07:21:36;;;;;;;10.30;9.20;;;21.20;99.90;;;;;;5007672;28;20574;-47
2021/06/04 07:24:02;;;;;;;10.98;8.32;;;21.40;99.90;;;;;;5021189;28;20395;-47
2021/06/04 07:26:27;;;;;;;10.80;8.38;;;21.50;99.90;;;;;;5027610;28;20040;-48
2021/06/04 07:29:00;;;;;;;8.65;7.88;;;21.60;99.90;;;;;;5027084;28;20033;-48
2021/06/04 07:31:25;;;;;;;10.73;7.93;;;21.70;99.90;;;;;;5027764;28;20282;-47
2021/06/04 07:33:54;;;;;;;12.48;9.05;;;21.90;99.90;;;;;;5027526;28;20029;-47
2021/06/04 07:36:29;;;;;;;10.68;8.30;;;22.00;99.90;;;;;;5026851;28;20549;-46
2021/06/04 07:38:56;;;;;;;12.40;7.93;;;22.00;99.90;;;;;;5026123;28;20036;-49
2021/06/04 07:41:23;;;;;;;12.00;8.20;;;22.30;99.90;;;;;;5024464;28;20030;-48
2021/06/04 07:43:49;;;;;;;10.48;7.88;;;22.40;99.90;;;;;;5007271;28;20417;-47
2021/06/04 07:46:17;;;;;;;12.93;8.07;;;22.50;99.90;;;;;;5019621;28;20052;-49
2021/06/04 07:48:43;;;;;;;11.45;7.40;;;22.80;99.50;;;;;;5026201;28;20126;-49
2021/06/04 07:51:14;;;;;;;11.40;8.52;;;23.20;99.40;;;;;;5025218;28;20117;-49
2021/06/04 07:53:39;;;;;;;8.15;7.35;;;23.40;97.90;;;;;;5005911;28;20284;-45
2021/06/04 07:56:08;;;;;;;8.98;7.05;;;23.70;97.90;;;;;;5006167;28;20030;-46
2021/06/04 07:58:34;;;;;;;9.77;8.15;;;23.90;97.30;;;;;;5004030;28;20411;-45
2021/06/04 08:01:03;;;;;;;10.63;6.85;;;24.00;96.10;;;;;;5010156;28;20025;-48
2021/06/04 08:03:29;;;;;;;9.40;6.95;;;24.00;95.60;;;;;;5022400;28;20037;-45
2021/06/04 08:05:55;;;;;;;8.68;7.25;;;24.20;95.70;;;;;;5007011;28;20042;-46
2021/06/04 08:08:23;;;;;;;7.75;6.40;;;24.30;95.80;;;;;;5024475;28;20319;-45
2021/06/04 08:10:50;;;;;;;9.40;6.40;;;24.70;95.00;;;;;;5026237;28;20170;-49
2021/06/04 08:13:19;;;;;;;12.65;6.45;;;25.10;95.20;;;;;;5025731;28;20152;-46
2021/06/04 08:15:57;;;;;;;12.90;7.40;;;26.10;91.30;;;;;;5026099;28;20490;-46
2021/06/04 08:18:25;;;;;;;10.15;5.97;;;27.10;85.30;;;;;;5025490;28;20116;-46
2021/06/04 08:20:51;;;;;;;9.48;6.07;;;28.10;83.90;;;;;;5026709;28;20026;-44
2021/06/04 08:23:23;;;;;;;6.88;5.32;;;29.00;75.70;;;;;;5025472;28;20121;-44
2021/06/04 08:25:51;;;;;;;8.13;4.60;;;30.60;67.00;;;;;;5027422;28;20029;-44
2021/06/04 08:28:18;;;;;;;6.50;4.25;;;30.90;63.80;;;;;;5028197;28;20025;-44
2021/06/04 08:30:45;;;;;;;5.78;4.60;;;31.80;59.40;;;;;;5030825;28;20040;-45
2021/06/04 08:33:11;;;;;;;6.30;4.10;;;32.10;57.40;;;;;;5030874;28;20043;-44
2021/06/04 08:35:37;;;;;;;4.97;4.50;;;32.30;56.70;;;;;;5030550;28;20630;-44
2021/06/04 08:38:05;;;;;;;11.23;5.53;;;31.80;55.50;;;;;;5028785;28;20052;-44
2021/06/04 08:40:36;;;;;;;7.00;5.10;;;31.20;53.90;;;;;;5030720;28;20017;-45
2021/06/04 08:43:43;;;;;;;6.25;4.43;;;31.30;56.10;;;;;;5030693;28;20025;-45
2021/06/04 08:46:31;;;;;;;7.72;4.53;;;32.50;55.60;;;;;;4990148;28;20410;-46
2021/06/04 08:49:29;;;;;;;8.18;5.05;;;33.60;52.40;;;;;;5029208;28;20029;-45
2021/06/04 08:52:24;;;;;;;5.53;3.97;;;34.10;49.90;;;;;;4988877;28;20041;-45
2021/06/04 08:55:03;;;;;;;7.18;4.05;;;34.40;49.90;;;;;;5026432;28;20087;-46
2021/06/04 08:57:53;;;;;;;5.32;4.15;;;35.40;48.70;;;;;;5028783;28;20030;-45
2021/06/04 09:00:32;;;;;;;7.78;4.47;;;35.60;47.40;;;;;;5030053;28;20029;-46
2021/06/04 09:03:05;;;;;;;7.20;4.75;;;35.40;48.20;;;;;;5029824;28;20020;-48
2021/06/04 09:05:40;;;;;;;4.32;3.90;;;35.80;47.80;;;;;;5029450;28;20025;-48
2021/06/04 09:08:14;;;;;;;6.25;5.22;;;35.70;49.00;;;;;;5028678;28;20013;-47
2021/06/04 09:10:56;;;;;;;5.43;4.20;;;35.30;46.20;;;;;;5029322;28;20677;-45
2021/06/04 09:13:26;;;;;;;4.32;3.90;;;34.70;49.90;;;;;;5028908;28;20025;-48
2021/06/04 09:15:59;;;;;;;4.68;3.80;;;35.50;48.90;;;;;;5029642;28;20036;-46
2021/06/04 09:18:50;;;;;;;5.00;4.00;;;36.40;46.50;;;;;;5028902;28;20048;-45
2021/06/04 09:21:21;;;;;;;5.95;3.80;;;36.00;46.00;;;;;;5029162;28;20491;-45
2021/06/04 09:23:47;;;;;;;6.63;4.25;;;36.30;45.70;;;;;;5022514;28;20083;-47
2021/06/04 09:26:16;;;;;;;6.15;3.80;;;36.90;44.50;;;;;;5008939;28;20430;-45
2021/06/04 09:28:48;;;;;;;5.28;4.07;;;37.80;43.50;;;;;;5009158;28;20065;-46
2021/06/04 09:31:24;;;;;;;6.97;4.43;;;36.40;45.20;;;;;;5010317;28;20026;-48
2021/06/04 09:34:13;;;;;;;5.68;4.22;;;36.40;45.60;;;;;;5010302;28;20304;-45
2021/06/04 09:36:50;;;;;;;6.63;5.70;;;36.60;43.80;;;;;;5009542;28;20025;-46
2021/06/04 09:39:39;;;;;;;6.18;4.55;;;37.30;45.20;;;;;;5009364;28;20040;-45
2021/06/04 09:42:10;;;;;;;9.40;4.85;;;37.90;43.40;;;;;;5009968;28;20018;-48
2021/06/04 09:44:58;;;;;;;6.13;4.18;;;37.80;43.60;;;;;;5010139;28;20026;-46
2021/06/04 09:47:28;;;;;;;13.15;8.80;;;37.90;43.00;;;;;;5008870;28;20577;-46
2021/06/04 09:49:54;;;;;;;5.60;4.90;;;37.60;43.50;;;;;;5009683;28;20118;-45
2021/06/04 09:52:27;;;;;;;8.27;5.88;;;37.80;41.40;;;;;;4992314;28;20412;-45
2021/06/04 09:55:11;;;;;;;13.10;7.97;;;37.80;43.50;;;;;;5009346;28;20029;-45
2021/06/04 09:57:54;;;;;;;8.70;5.10;;;38.00;42.70;;;;;;5009029;28;20617;-46
2021/06/04 10:00:25;;;;;;;10.60;7.93;;;38.40;43.90;;;;;;5009862;28;20487;-46
2021/06/04 10:02:50;;;;;;;6.85;5.95;;;38.60;42.70;;;;;;5008979;28;20034;-46
2021/06/04 10:05:24;;;;;;;8.55;6.40;;;38.30;42.40;;;;;;5020131;28;20130;-46
2021/06/04 10:08:05;;;;;;;6.05;4.80;;;38.50;42.90;;;;;;5028252;28;20013;-46
2021/06/04 10:10:36;;;;;;;7.85;5.05;;;38.50;43.10;;;;;;5029289;28;20108;-46
2021/06/04 10:13:11;;;;;;;5.88;4.18;;;38.90;43.90;;;;;;5029627;28;20083;-45
2021/06/04 10:15:50;;;;;;;5.53;4.05;;;39.10;41.60;;;;;;5029192;28;20034;-47
2021/06/04 10:18:37;;;;;;;8.43;5.20;;;39.50;43.10;;;;;;5010646;28;20390;-48
2021/06/04 10:21:29;;;;;;;7.70;4.65;;;39.50;41.10;;;;;;5018188;28;20387;-47
2021/06/04 10:23:56;;;;;;;4.93;4.32;;;39.70;40.80;;;;;;5011226;28;20033;-46
2021/06/04 10:26:32;;;;;;;5.13;4.63;;;39.40;41.90;;;;;;5018847;28;20017;-46
2021/06/04 10:29:08;;;;;;;6.38;4.93;;;39.50;41.20;;;;;;5021937;28;20394;-45
2021/06/04 10:31:56;;;;;;;6.85;4.35;;;39.20;42.30;;;;;;5027445;28;20033;-46
2021/06/04 10:34:28;;;;;;;;;;;39.20;42.60;;;;;;5016612;28;20169;-44
2021/06/04 10:36:56;;;;;;;10.73;5.97;;;39.20;40.40;;;;;;5028259;28;20003;-44
2021/06/04 10:39:34;;;;;;;5.93;4.17;;;39.20;41.00;;;;;;5026257;28;20133;-49
2021/06/04 10:42:28;;;;;;;6.50;5.30;;;38.80;41.10;;;;;;5025851;28;20443;-49
2021/06/04 10:45:02;;;;;;;9.35;5.85;;;38.20;43.70;;;;;;5023179;28;20030;-46
2021/06/04 10:47:37;;;;;;;9.38;5.32;;;38.60;40.70;;;;;;5024761;28;20108;-52
2021/06/04 10:50:14;;;;;;;6.55;5.28;;;39.00;43.50;;;;;;5024733;28;20509;-46
2021/06/04 10:53:00;;;;;;;9.15;5.70;;;39.10;40.70;;;;;;5006490;28;20033;-46
2021/06/04 10:55:48;;;;;;;9.18;5.38;;;39.20;40.20;;;;;;5022526;28;20053;-47
2021/06/04 10:58:50;;;;;;;5.40;4.65;;;39.60;40.80;;;;;;5020512;28;20069;-46
2021/06/04 11:01:20;;;;;;;7.65;4.80;;;39.80;41.60;;;;;;5014242;28;20026;-46
2021/06/04 11:04:07;;;;;;;5.97;4.63;;;40.10;39.90;;;;;;5019896;28;20026;-46
2021/06/04 11:07:08;;;;;;;5.93;4.30;;;39.80;40.90;;;;;;5019533;28;20108;-49
2021/06/04 11:09:33;;;;;;;6.93;4.85;;;39.40;40.30;;;;;;5026823;28;20557;-46
2021/06/04 11:12:34;;;;;;;6.93;5.05;;;39.10;41.20;;;;;;5029118;28;20029;-47
2021/06/04 11:15:14;;;;;;;5.80;3.97;;;39.30;40.30;;;;;;5029175;28;20375;-49
2021/06/04 11:17:51;;;;;;;4.97;4.05;;;39.30;38.90;;;;;;5028264;28;20054;-49
2021/06/04 11:20:40;;;;;;;5.85;4.47;;;39.80;40.30;;;;;;5028700;28;20026;-48
2021/06/04 11:23:16;;;;;;;4.55;4.10;;;39.60;40.00;;;;;;5028699;28;20045;-49
2021/06/04 11:25:52;;;;;;;9.32;4.93;;;39.10;41.30;;;;;;5029399;28;20132;-46
2021/06/04 11:28:30;;;;;;;6.25;4.70;;;38.90;39.40;;;;;;5047821;28;20726;-49
2021/06/04 11:30:59;;;;;;;8.02;4.40;;;38.60;39.40;;;;;;5048237;28;20035;-46
2021/06/04 11:33:36;;;;;;;7.00;4.53;;;38.60;40.10;;;;;;5021971;28;20037;-46
2021/06/04 11:36:08;;;;;;;4.80;4.00;;;39.10;38.60;;;;;;5021900;28;20021;-47
2021/06/04 11:38:45;;;;;;;7.80;4.53;;;39.10;39.40;;;;;;5023605;28;20116;-46
2021/06/04 11:41:21;;;;;;;9.75;4.63;;;39.10;39.10;;;;;;5024061;28;20104;-45
2021/06/04 11:43:54;;;;;;;6.55;4.80;;;38.40;38.50;;;;;;5024724;28;20025;-46
2021/06/04 11:46:21;;;;;;;7.72;4.68;;;37.80;38.90;;;;;;5024507;28;20632;-47
2021/06/04 11:49:09;;;;;;;6.22;4.80;;;38.00;40.20;;;;;;5016683;28;20494;-47
2021/06/04 11:51:38;;;;;;;4.90;4.40;;;37.80;39.60;;;;;;5026627;28;20018;-48
2021/06/04 11:54:19;;;;;;;8.27;4.70;;;38.00;40.00;;;;;;5027752;28;20112;-47
2021/06/04 11:56:53;;;;;;;5.55;4.65;;;37.90;40.20;;;;;;5026534;28;20033;-46
2021/06/04 11:59:45;;;;;;;5.10;4.70;;;38.20;40.00;;;;;;5025263;28;20021;-47
2021/06/04 12:02:36;;;;;;;8.05;5.65;;;37.70;40.90;;;;;;5031229;28;20017;-46
2021/06/04 12:05:30;;;;;;;7.28;5.00;;;36.30;40.80;;;;;;5030016;28;20021;-44
2021/06/04 12:08:28;;;;;;;6.70;5.63;;;35.80;42.30;;;;;;5030982;28;20018;-46
2021/06/04 12:11:18;;;;;;;9.63;6.32;;;35.50;43.80;;;;;;5031800;28;20463;-45
2021/06/04 12:13:50;;;;;;;8.63;6.00;;;35.10;44.90;;;;;;5025032;28;20022;-46
2021/06/04 12:19:08;;;;;;;8.73;5.68;;;34.10;46.50;;;;;;5032209;28;20112;-46
2021/06/04 12:21:46;;;;;;;7.25;5.47;;;33.70;46.30;;;;;;5029913;28;20120;-46
2021/06/04 12:24:20;;;;;;;9.18;6.47;;;33.40;45.10;;;;;;5032318;28;20024;-48
2021/06/04 12:27:11;;;;;;;9.07;5.78;;;33.10;46.60;;;;;;5032677;28;20037;-47
2021/06/04 12:29:51;;;;;;;6.85;6.03;;;33.00;46.30;;;;;;5015480;28;20084;-46
2021/06/04 12:32:38;;;;;;;8.52;5.88;;;33.10;46.50;;;;;;5032689;28;20463;-46
2021/06/04 12:35:07;;;;;;;7.22;5.45;;;33.10;49.30;;;;;;5014915;28;20018;-46
2021/06/04 12:37:38;;;;;;;6.40;5.68;;;33.10;49.60;;;;;;5031305;28;20021;-46
2021/06/04 12:40:29;;;;;;;5.85;5.25;;;33.10;48.10;;;;;;5032219;28;20025;-47
2021/06/04 12:43:14;;;;;;;6.90;6.20;;;33.00;47.30;;;;;;5032513;28;20096;-45
2021/06/04 12:45:44;;;;;;;7.13;6.05;;;32.90;49.00;;;;;;5032309;28;20708;-45
2021/06/04 12:48:28;;;;;;;7.25;5.75;;;33.00;49.80;;;;;;5031742;28;20013;-46
2021/06/04 12:50:56;;;;;;;8.63;5.38;;;33.20;49.70;;;;;;5032536;28;20073;-46
2021/06/04 12:53:40;;;;;;;5.88;5.35;;;33.00;49.00;;;;;;5030601;28;20030;-48
2021/06/04 12:56:08;;;;;;;8.45;6.00;;;32.80;47.70;;;;;;5022790;28;20069;-46
2021/06/04 12:58:37;;;;;;;5.53;5.03;;;32.70;48.00;;;;;;5020282;28;20507;-46
2021/06/04 13:01:15;;;;;;;7.63;6.00;;;32.80;46.60;;;;;;5010987;28;20049;-45
2021/06/04 13:03:45;;;;;;;6.20;5.60;;;32.90;47.60;;;;;;5018857;28;20068;-46
2021/06/04 13:06:33;;;;;;;;;;;32.90;49.00;;;;;;5022150;28;20559;-44
2021/06/04 13:08:59;;;;;;;7.13;6.10;;;32.80;48.70;;;;;;5019397;28;19909;-46
2021/06/04 13:11:51;;;;;;;7.57;6.07;;;32.80;48.90;;;;;;5023088;28;20029;-47
2021/06/04 13:14:21;;;;;;;6.63;6.00;;;32.60;48.10;;;;;;5022886;28;20357;-47
2021/06/04 13:16:46;;;;;;;7.10;6.28;;;32.20;48.50;;;;;;5019235;28;20025;-45